createdAt,value
2022-10-21T00:01:59.363Z,84.29
2022-10-21T00:04:22.886Z,84.74
2022-10-21T00:06:46.951Z,84.84
2022-10-21T00:09:10.566Z,83.43
2022-10-21T00:11:35.551Z,82.74
2022-10-21T00:13:59.110Z,84.10
2022-10-21T00:16:22.678Z,84.60
2022-10-21T00:18:48.055Z,83.35
2022-10-21T00:21:14.561Z,84.68
2022-10-21T00:23:38.300Z,84.60
2022-10-21T00:26:02.841Z,84.48
2022-10-21T00:28:28.906Z,84.76
2022-10-21T00:30:52.703Z,82.32
2022-10-21T00:33:16.470Z,83.38
2022-10-21T00:35:40.120Z,83.35
2022-10-21T00:38:03.703Z,83.84
2022-10-21T00:40:27.264Z,83.63
2022-10-21T00:42:50.818Z,83.71
2022-10-21T00:45:23.361Z,83.88
2022-10-21T00:47:51.468Z,84.69
2022-10-21T00:50:29.298Z,85.07
2022-10-21T00:52:53.955Z,84.89
2022-10-21T00:55:17.738Z,84.59
2022-10-21T00:57:41.685Z,85.61
2022-10-21T01:00:08.438Z,85.05
2022-10-21T01:02:33.543Z,85.28
2022-10-21T01:05:01.233Z,85.07
2022-10-21T01:07:25.192Z,85.25
2022-10-21T01:09:48.751Z,84.84
2022-10-21T01:12:27.009Z,86.71
2022-10-21T01:14:57.700Z,85.25
2022-10-21T01:17:52.322Z,85.25
2022-10-21T01:20:59.894Z,88.48
2022-10-21T01:24:07.653Z,86.95
2022-10-21T01:27:07.375Z,87.42
2022-10-21T01:30:14.431Z,87.53
2022-10-21T01:33:16.768Z,87.22
2022-10-21T01:35:49.280Z,85.93
2022-10-21T01:38:24.014Z,87.11
2022-10-21T01:40:57.235Z,86.40
2022-10-21T01:43:30.081Z,88.00
2022-10-21T01:45:57.983Z,87.44
2022-10-21T01:48:29.070Z,87.32
2022-10-21T01:50:56.899Z,86.17
2022-10-21T01:53:23.223Z,86.79
2022-10-21T01:55:49.561Z,87.85
2022-10-21T01:58:21.723Z,89.44
2022-10-21T02:00:46.492Z,86.64
2022-10-21T02:03:18.595Z,86.43
2022-10-21T02:05:44.122Z,85.77
2022-10-21T02:08:08.069Z,86.20
2022-10-21T02:10:36.994Z,86.58
2022-10-21T02:13:04.027Z,87.25
2022-10-21T02:15:29.160Z,86.70
2022-10-21T02:17:59.927Z,86.60
2022-10-21T02:20:28.742Z,86.14
2022-10-21T02:22:54.355Z,86.11
2022-10-21T02:25:22.055Z,87.72
2022-10-21T02:27:46.972Z,85.86
2022-10-21T02:30:11.832Z,85.99
2022-10-21T02:32:40.240Z,85.82
2022-10-21T02:35:18.611Z,87.45
2022-10-21T02:37:52.495Z,86.82
2022-10-21T02:40:23.909Z,86.23
2022-10-21T02:42:52.718Z,86.01
2022-10-21T02:45:18.453Z,86.74
2022-10-21T02:47:44.297Z,85.38
2022-10-21T02:50:08.839Z,86.38
2022-10-21T02:52:32.421Z,85.59
2022-10-21T02:54:57.310Z,86.91
2022-10-21T02:57:20.900Z,85.50
2022-10-21T02:59:44.463Z,87.20
2022-10-21T03:02:08.031Z,85.90
2022-10-21T03:04:31.556Z,85.56
2022-10-21T03:06:55.167Z,85.80
2022-10-21T03:09:18.707Z,86.46
2022-10-21T03:11:43.695Z,86.10
2022-10-21T03:14:07.203Z,87.59
2022-10-21T03:16:30.812Z,85.96
2022-10-21T03:18:54.351Z,86.39
2022-10-21T03:21:17.903Z,86.91
2022-10-21T03:23:41.475Z,86.98
2022-10-21T03:26:05.143Z,87.40
2022-10-21T03:28:30.470Z,86.34
2022-10-21T03:30:55.522Z,86.83
2022-10-21T03:33:19.050Z,87.31
2022-10-21T03:35:42.681Z,87.62
2022-10-21T03:38:06.252Z,86.91
2022-10-21T03:40:30.425Z,87.41
2022-10-21T03:42:54.031Z,87.42
2022-10-21T03:45:19.183Z,87.56
2022-10-21T03:47:42.695Z,87.70
2022-10-21T03:50:11.874Z,88.70
2022-10-21T03:52:37.847Z,90.46
2022-10-21T03:55:01.455Z,90.31
2022-10-21T03:57:25.048Z,90.06
2022-10-21T03:59:48.607Z,87.75
2022-10-21T04:02:13.644Z,87.38
2022-10-21T04:04:37.319Z,87.51
2022-10-21T04:07:00.950Z,87.43
2022-10-21T04:09:24.450Z,86.65
2022-10-21T04:11:48.015Z,87.05
2022-10-21T04:14:14.547Z,87.31
2022-10-21T04:16:39.110Z,87.72
2022-10-21T04:19:04.325Z,88.88
2022-10-21T04:21:28.086Z,88.83
2022-10-21T04:23:51.624Z,88.09
2022-10-21T04:26:15.266Z,86.72
2022-10-21T04:28:39.451Z,88.21
2022-10-21T04:31:03.403Z,87.25
2022-10-21T04:33:27.146Z,87.44
2022-10-21T04:35:52.246Z,86.99
2022-10-21T04:38:15.887Z,88.12
2022-10-21T04:40:39.547Z,88.49
2022-10-21T04:43:03.759Z,88.57
2022-10-21T04:45:27.409Z,88.33
2022-10-21T04:47:50.952Z,89.21
2022-10-21T04:50:14.662Z,87.19
2022-10-21T04:52:40.831Z,86.56
2022-10-21T04:55:07.143Z,86.42
2022-10-21T04:57:30.739Z,86.25
2022-10-21T04:59:54.327Z,85.47
2022-10-21T05:02:20.498Z,85.73
2022-10-21T05:04:46.625Z,85.73
2022-10-21T05:07:10.458Z,86.16
2022-10-21T05:09:35.495Z,85.43
2022-10-21T05:11:59.075Z,85.64
2022-10-21T05:14:23.056Z,85.89
2022-10-21T05:16:46.613Z,84.99
2022-10-21T05:19:10.239Z,84.54
2022-10-21T05:21:33.806Z,86.21
2022-10-21T05:23:57.480Z,85.71
2022-10-21T05:26:24.263Z,85.62
2022-10-21T05:28:47.848Z,87.06
2022-10-21T05:31:11.387Z,87.40
2022-10-21T05:33:35.017Z,87.01
2022-10-21T05:36:00.991Z,87.09
2022-10-21T05:38:24.603Z,87.45
2022-10-21T05:40:48.977Z,88.43
2022-10-21T05:43:13.932Z,88.01
2022-10-21T05:45:37.465Z,87.97
2022-10-21T05:48:01.010Z,87.50
2022-10-21T05:50:24.645Z,87.83
2022-10-21T05:52:48.269Z,87.44
2022-10-21T05:55:11.951Z,87.54
2022-10-21T05:57:36.233Z,87.50
2022-10-21T06:00:01.206Z,86.93
2022-10-21T06:02:24.771Z,87.21
2022-10-21T06:04:48.267Z,87.20
2022-10-21T06:07:12.007Z,87.81
2022-10-21T06:09:35.567Z,87.84
2022-10-21T06:11:59.203Z,87.15
2022-10-21T06:14:22.722Z,87.12
2022-10-21T06:16:47.741Z,88.07
2022-10-21T06:19:11.283Z,87.53
2022-10-21T06:21:34.907Z,87.07
2022-10-21T06:23:58.472Z,87.36
2022-10-21T06:26:22.566Z,87.42
2022-10-21T06:28:46.084Z,86.95
2022-10-21T06:31:14.308Z,87.00
2022-10-21T06:33:39.304Z,87.40
2022-10-21T06:36:02.939Z,87.42
2022-10-21T06:38:27.186Z,88.63
2022-10-21T06:40:50.761Z,87.87
2022-10-21T06:43:14.286Z,87.56
2022-10-21T06:45:38.047Z,88.23
2022-10-21T06:48:01.958Z,88.84
2022-10-21T06:50:27.220Z,87.65
2022-10-21T06:52:50.897Z,87.84
2022-10-21T06:55:14.477Z,88.61
2022-10-21T06:57:38.132Z,88.39
2022-10-21T07:00:01.843Z,87.45
2022-10-21T07:02:25.504Z,86.92
2022-10-21T07:04:49.470Z,87.75
2022-10-21T07:07:14.457Z,88.87
2022-10-21T07:09:38.082Z,89.39
2022-10-21T07:12:02.911Z,87.75
2022-10-21T07:14:26.551Z,87.13
2022-10-21T07:16:51.512Z,88.42
2022-10-21T07:19:15.385Z,89.43
2022-10-21T07:21:39.034Z,88.82
2022-10-21T07:24:04.045Z,88.12
2022-10-21T07:26:29.416Z,87.91
2022-10-21T07:28:53.163Z,88.17
2022-10-21T07:31:18.572Z,88.38
2022-10-21T07:33:43.457Z,86.41
2022-10-21T07:36:10.396Z,87.65
2022-10-21T07:38:34.263Z,86.91
2022-10-21T07:40:59.338Z,85.99
2022-10-21T07:43:22.903Z,85.17
2022-10-21T07:45:46.560Z,84.73
2022-10-21T07:48:10.445Z,84.53
2022-10-21T07:50:34.019Z,86.13
2022-10-21T07:53:11.039Z,86.06
2022-10-21T07:55:35.848Z,84.69
2022-10-21T07:58:00.967Z,84.83
2022-10-21T08:00:24.538Z,83.04
2022-10-21T08:02:48.071Z,84.05
2022-10-21T08:05:11.644Z,84.40
2022-10-21T08:07:35.831Z,84.39
2022-10-21T08:09:59.491Z,84.82
2022-10-21T08:12:23.024Z,83.38
2022-10-21T08:14:48.155Z,82.86
2022-10-21T08:17:11.670Z,81.82
2022-10-21T08:19:35.799Z,83.69
2022-10-21T08:22:00.904Z,82.98
2022-10-21T08:24:24.644Z,82.05
2022-10-21T08:26:48.337Z,82.53
2022-10-21T08:29:11.920Z,82.20
2022-10-21T08:31:36.880Z,81.45
2022-10-21T08:34:00.461Z,83.10
2022-10-21T08:36:26.015Z,79.61
2022-10-21T08:38:50.545Z,81.41
2022-10-21T08:41:36.763Z,79.96
2022-10-21T08:44:06.867Z,79.08
2022-10-21T08:46:37.159Z,79.51
2022-10-21T08:49:05.398Z,78.98
2022-10-21T08:51:34.591Z,79.71
2022-10-21T08:54:04.024Z,79.57
2022-10-21T08:56:28.732Z,79.15
2022-10-21T08:58:53.766Z,79.11
2022-10-21T09:01:24.474Z,79.00
2022-10-21T09:03:57.786Z,79.15
2022-10-21T09:06:29.578Z,79.67
2022-10-21T09:09:08.458Z,78.72
2022-10-21T09:11:48.067Z,77.41
2022-10-21T09:14:58.631Z,80.73
2022-10-21T09:17:36.662Z,75.79
2022-10-21T09:20:13.916Z,73.39
2022-10-21T09:22:56.473Z,76.19
2022-10-21T09:25:25.064Z,72.14
2022-10-21T09:27:57.366Z,72.83
2022-10-21T09:30:23.226Z,68.52
2022-10-21T09:32:51.111Z,69.18
2022-10-21T09:35:25.840Z,69.94
2022-10-21T09:37:53.421Z,71.65
2022-10-21T09:40:19.362Z,71.34
2022-10-21T09:42:47.269Z,68.98
2022-10-21T09:45:22.353Z,67.75
2022-10-21T09:47:49.606Z,65.42
2022-10-21T09:50:18.768Z,66.50
2022-10-21T09:52:51.430Z,66.19
2022-10-21T09:55:16.008Z,69.85
2022-10-21T09:57:47.470Z,69.25
2022-10-21T10:00:13.975Z,68.48
2022-10-21T10:02:43.171Z,68.95
2022-10-21T10:05:36.449Z,70.25
2022-10-21T10:08:00.044Z,69.27
2022-10-21T10:10:32.918Z,69.71
2022-10-21T10:12:58.688Z,69.50
2022-10-21T10:15:34.561Z,70.53
2022-10-21T10:17:58.857Z,68.89
2022-10-21T10:20:23.864Z,69.63
2022-10-21T10:22:49.425Z,70.77
2022-10-21T10:25:24.270Z,69.31
2022-10-21T10:27:54.210Z,70.40
2022-10-21T10:30:18.611Z,70.67
2022-10-21T10:32:42.731Z,69.19
2022-10-21T10:35:23.850Z,69.21
2022-10-21T10:37:50.546Z,69.56
2022-10-21T10:40:23.834Z,69.14
2022-10-21T10:42:47.714Z,69.21
2022-10-21T10:45:19.688Z,67.15
2022-10-21T10:47:49.140Z,66.60
2022-10-21T10:50:45.622Z,64.50
2022-10-21T10:53:33.704Z,66.33
2022-10-21T10:56:07.932Z,65.60
2022-10-21T10:58:36.058Z,64.49
2022-10-21T11:01:05.157Z,64.28
2022-10-21T11:03:41.122Z,64.62
2022-10-21T11:06:15.632Z,64.43
2022-10-21T11:08:45.268Z,64.58
2022-10-21T11:11:16.382Z,64.75
2022-10-21T11:13:42.197Z,63.00
2022-10-21T11:16:26.015Z,64.43
2022-10-21T11:18:58.262Z,63.78
2022-10-21T11:21:43.231Z,64.77
2022-10-21T11:24:30.268Z,63.16
2022-10-21T11:27:01.219Z,65.69
2022-10-21T11:29:41.187Z,65.95
2022-10-21T11:32:21.606Z,65.37
2022-10-21T11:35:01.535Z,66.51
2022-10-21T11:37:44.238Z,64.02
2022-10-21T11:40:21.174Z,64.25
2022-10-21T11:42:48.363Z,64.58
2022-10-21T11:45:38.995Z,63.12
2022-10-21T11:48:18.304Z,62.72
2022-10-21T11:50:54.512Z,61.69
2022-10-21T11:53:36.512Z,61.90
2022-10-21T11:56:14.761Z,65.33
2022-10-21T11:58:51.575Z,64.06
2022-10-21T12:01:28.511Z,65.09
2022-10-21T12:04:24.464Z,61.40
2022-10-21T12:07:07.743Z,61.83
2022-10-21T12:09:40.039Z,62.09
2022-10-21T12:12:10.235Z,62.42
2022-10-21T12:14:38.159Z,64.44
2022-10-21T12:17:06.902Z,62.66
2022-10-21T12:19:31.350Z,62.71
2022-10-21T12:21:55.223Z,61.93
2022-10-21T12:24:36.611Z,62.86
2022-10-21T12:27:11.079Z,63.05
2022-10-21T12:29:59.945Z,61.06
2022-10-21T12:32:31.148Z,64.80
2022-10-21T12:34:55.569Z,62.43
2022-10-21T12:37:47.727Z,63.52
2022-10-21T12:40:17.405Z,62.05
2022-10-21T12:42:47.958Z,62.66
2022-10-21T12:45:28.368Z,61.98
2022-10-21T12:47:54.452Z,64.39
2022-10-21T12:50:29.730Z,62.17
2022-10-21T12:53:18.170Z,62.93
2022-10-21T12:55:43.241Z,62.21
2022-10-21T12:58:23.773Z,63.80
2022-10-21T13:00:57.205Z,63.13
2022-10-21T13:03:22.970Z,63.94
2022-10-21T13:06:07.122Z,63.84
2022-10-21T13:08:41.529Z,62.14
2022-10-21T13:11:24.004Z,63.71
2022-10-21T13:13:50.188Z,64.49
2022-10-21T13:16:46.742Z,64.07
2022-10-21T13:19:35.579Z,64.14
2022-10-21T13:22:04.560Z,64.11
2022-10-21T13:24:32.172Z,64.97
2022-10-21T13:26:58.321Z,64.29
2022-10-21T13:29:33.486Z,64.32
2022-10-21T13:32:30.111Z,64.77
2022-10-21T13:35:03.019Z,64.91
2022-10-21T13:37:30.278Z,64.64
2022-10-21T13:39:55.696Z,64.69
2022-10-21T13:42:24.091Z,64.56
2022-10-21T13:44:59.135Z,65.20
2022-10-21T13:47:30.278Z,64.00
2022-10-21T13:49:56.658Z,64.10
2022-10-21T13:52:20.503Z,64.23
2022-10-21T13:54:44.052Z,64.78
2022-10-21T13:57:08.958Z,64.47
2022-10-21T13:59:34.656Z,64.06
2022-10-21T14:01:59.791Z,65.71
2022-10-21T14:04:27.055Z,66.26
2022-10-21T14:06:57.793Z,65.93
2022-10-21T14:09:27.159Z,66.33
2022-10-21T14:11:54.871Z,66.36
2022-10-21T14:14:22.993Z,66.63
2022-10-21T14:16:53.394Z,66.73
2022-10-21T14:19:23.242Z,66.97
2022-10-21T14:21:52.394Z,65.71
2022-10-21T14:24:35.733Z,67.17
2022-10-21T14:26:59.761Z,67.17
2022-10-21T14:29:25.584Z,66.85
2022-10-21T14:31:49.383Z,67.40
2022-10-21T14:34:24.359Z,68.31
2022-10-21T14:37:07.835Z,68.83
2022-10-21T14:39:34.758Z,67.97
2022-10-21T14:42:05.238Z,69.43
2022-10-21T14:44:30.930Z,68.76
2022-10-21T14:46:55.631Z,69.00
2022-10-21T14:49:24.449Z,68.44
2022-10-21T14:51:48.124Z,67.71
2022-10-21T14:54:27.722Z,69.50
2022-10-21T14:56:51.317Z,70.58
2022-10-21T14:59:23.997Z,69.78
2022-10-21T15:01:47.999Z,69.62
2022-10-21T15:04:44.917Z,71.33
2022-10-21T15:07:19.570Z,71.26
2022-10-21T15:10:13.047Z,71.98
2022-10-21T15:12:41.841Z,70.41
2022-10-21T15:15:07.099Z,69.45
2022-10-21T15:17:30.763Z,70.08
2022-10-21T15:19:55.874Z,70.13
2022-10-21T15:22:30.122Z,70.09
2022-10-21T15:24:56.035Z,70.00
2022-10-21T15:27:27.110Z,70.38
2022-10-21T15:29:50.775Z,70.36
2022-10-21T15:32:19.432Z,70.44
2022-10-21T15:34:43.284Z,69.93
2022-10-21T15:37:08.427Z,70.29
2022-10-21T15:39:32.595Z,70.82
2022-10-21T15:41:57.557Z,71.53
2022-10-21T15:44:25.918Z,70.43
2022-10-21T15:46:57.530Z,71.07
2022-10-21T15:49:24.649Z,71.63
2022-10-21T15:51:49.529Z,71.17
2022-10-21T15:54:15.467Z,71.23
2022-10-21T15:56:39.081Z,72.18
2022-10-21T15:59:03.182Z,73.82
2022-10-21T16:01:28.291Z,72.80
2022-10-21T16:03:51.897Z,72.51
2022-10-21T16:06:18.710Z,73.20
2022-10-21T16:08:42.371Z,73.13
2022-10-21T16:11:09.592Z,73.02
2022-10-21T16:13:33.160Z,73.61
2022-10-21T16:15:57.454Z,73.44
2022-10-21T16:18:21.055Z,73.44
2022-10-21T16:20:44.794Z,73.82
2022-10-21T16:23:08.735Z,73.98
2022-10-21T16:25:32.323Z,74.15
2022-10-21T16:27:57.295Z,74.40
2022-10-21T16:30:23.728Z,73.94
2022-10-21T16:32:47.479Z,74.24
2022-10-21T16:35:13.934Z,73.88
2022-10-21T16:37:37.752Z,74.68
2022-10-21T16:40:02.151Z,75.71
2022-10-21T16:42:25.855Z,75.04
2022-10-21T16:44:51.225Z,75.18
2022-10-21T16:47:19.494Z,75.15
2022-10-21T16:49:43.065Z,75.03
2022-10-21T16:52:06.959Z,75.66
2022-10-21T16:54:30.522Z,75.04
2022-10-21T16:56:55.614Z,78.42
2022-10-21T16:59:19.389Z,77.29
2022-10-21T17:01:44.590Z,76.71
2022-10-21T17:04:08.207Z,77.49
2022-10-21T17:06:31.972Z,77.57
2022-10-21T17:08:57.263Z,78.15
2022-10-21T17:11:23.224Z,78.67
2022-10-21T17:13:47.167Z,79.55
2022-10-21T17:16:11.026Z,81.00
2022-10-21T17:18:35.973Z,82.29
2022-10-21T17:20:59.540Z,83.99
2022-10-21T17:23:24.608Z,86.36
2022-10-21T17:25:48.190Z,85.93
2022-10-21T17:28:11.706Z,86.56
2022-10-21T17:30:35.467Z,86.95
2022-10-21T17:32:59.049Z,87.91
2022-10-21T17:35:24.188Z,87.51
2022-10-21T17:37:48.289Z,90.35
2022-10-21T17:40:16.478Z,89.56
2022-10-21T17:42:40.287Z,92.09
2022-10-21T17:45:04.191Z,91.65
2022-10-21T17:47:27.820Z,90.45
2022-10-21T17:49:51.351Z,90.77
2022-10-21T17:52:16.240Z,90.47
2022-10-21T17:54:39.842Z,92.65
2022-10-21T17:57:03.341Z,91.17
2022-10-21T17:59:26.947Z,92.05
2022-10-21T18:01:50.539Z,91.77
2022-10-21T18:04:14.399Z,94.11
2022-10-21T18:06:38.029Z,96.18
2022-10-21T18:09:05.382Z,94.89
2022-10-21T18:11:29.003Z,95.52
2022-10-21T18:13:55.172Z,95.17
2022-10-21T18:16:22.913Z,95.50
2022-10-21T18:18:47.261Z,96.49
2022-10-21T18:21:13.403Z,95.82
2022-10-21T18:23:39.147Z,94.36
2022-10-21T18:26:05.886Z,95.12
2022-10-21T18:28:29.583Z,94.16
2022-10-21T18:30:53.170Z,92.00
2022-10-21T18:33:16.724Z,90.91
2022-10-21T18:35:40.366Z,92.67
2022-10-21T18:38:03.947Z,93.94
2022-10-21T18:40:28.227Z,96.82
2022-10-21T18:42:53.262Z,95.99
2022-10-21T18:45:16.965Z,95.67
2022-10-21T18:47:40.954Z,96.97
2022-10-21T18:50:05.186Z,95.66
2022-10-21T18:52:28.770Z,98.02
2022-10-21T18:54:52.262Z,97.55
2022-10-21T18:57:15.952Z,96.81
2022-10-21T18:59:41.098Z,100.00
2022-10-21T19:02:04.688Z,100.00
2022-10-21T19:04:28.268Z,100.00
2022-10-21T19:06:51.879Z,99.67
2022-10-21T19:09:20.256Z,96.58
2022-10-21T19:11:44.941Z,94.53
2022-10-21T19:14:11.420Z,96.77
2022-10-21T19:16:39.662Z,96.27
2022-10-21T19:19:03.363Z,96.00
2022-10-21T19:21:27.552Z,96.55
2022-10-21T19:23:52.186Z,94.56
2022-10-21T19:26:18.794Z,94.76
2022-10-21T19:28:44.781Z,94.37
2022-10-21T19:31:11.267Z,93.16
2022-10-21T19:33:36.181Z,91.09
2022-10-21T19:36:01.569Z,92.46
2022-10-21T19:38:39.654Z,92.37
2022-10-21T19:41:13.677Z,91.34
2022-10-21T19:43:37.234Z,92.52
2022-10-21T19:46:03.771Z,91.46
2022-10-21T19:48:27.334Z,92.93
2022-10-21T19:50:53.598Z,92.71
2022-10-21T19:53:17.632Z,94.60
2022-10-21T19:55:41.315Z,92.97
2022-10-21T19:58:04.880Z,93.96
2022-10-21T20:00:28.469Z,94.63
2022-10-21T20:02:51.994Z,93.09
2022-10-21T20:05:15.571Z,92.84
2022-10-21T20:07:41.143Z,92.86
2022-10-21T20:10:07.085Z,92.90
2022-10-21T20:12:30.634Z,91.76
2022-10-21T20:14:54.187Z,91.40
2022-10-21T20:17:18.383Z,92.47
2022-10-21T20:19:42.054Z,92.87
2022-10-21T20:22:05.626Z,91.23
2022-10-21T20:24:30.618Z,91.60
2022-10-21T20:26:56.177Z,91.69
2022-10-21T20:29:23.103Z,90.59
2022-10-21T20:31:46.836Z,90.26
2022-10-21T20:34:14.134Z,90.90
2022-10-21T20:36:37.731Z,92.55
2022-10-21T20:39:03.130Z,96.46
2022-10-21T20:41:34.159Z,93.58
2022-10-21T20:43:58.086Z,93.25
2022-10-21T20:46:24.183Z,95.74
2022-10-21T20:48:49.657Z,95.71
2022-10-21T20:51:15.971Z,95.67
2022-10-21T20:53:40.347Z,94.10
2022-10-21T20:56:04.971Z,92.62
2022-10-21T20:58:30.176Z,92.10
2022-10-21T21:00:53.743Z,93.20
2022-10-21T21:03:17.294Z,93.10
2022-10-21T21:05:40.899Z,92.56
2022-10-21T21:08:04.638Z,91.85
2022-10-21T21:10:28.226Z,92.34
2022-10-21T21:12:51.831Z,94.49
2022-10-21T21:15:16.842Z,93.47
2022-10-21T21:17:40.483Z,95.83
2022-10-21T21:20:03.999Z,96.30
2022-10-21T21:22:27.663Z,96.98
2022-10-21T21:24:51.198Z,96.90
2022-10-21T21:27:14.802Z,96.93
2022-10-21T21:29:38.304Z,97.42
2022-10-21T21:32:03.287Z,98.96
2022-10-21T21:34:26.882Z,98.92
2022-10-21T21:36:50.466Z,98.18
2022-10-21T21:41:38.914Z,99.94
2022-10-21T21:44:02.434Z,98.89
2022-10-21T21:46:27.316Z,100.00
2022-10-21T21:48:55.457Z,99.37
2022-10-21T21:51:23.490Z,98.86
2022-10-21T21:53:47.106Z,99.49
2022-10-21T21:56:10.732Z,98.55
2022-10-21T21:58:34.856Z,96.55
2022-10-21T22:00:58.555Z,99.54
2022-10-21T22:03:22.080Z,98.68
2022-10-21T22:05:47.011Z,97.12
2022-10-21T22:08:11.611Z,97.65
2022-10-21T22:10:35.722Z,99.45
2022-10-21T22:12:59.227Z,100.00
2022-10-21T22:15:43.342Z,98.31
2022-10-21T22:18:06.986Z,99.30
2022-10-21T22:20:30.522Z,98.40
2022-10-21T22:22:55.489Z,97.61
2022-10-21T22:25:19.545Z,97.47
2022-10-21T22:27:43.370Z,97.85
2022-10-21T22:30:09.263Z,97.18
2022-10-21T22:32:32.922Z,98.27
2022-10-21T22:34:56.451Z,99.83
2022-10-21T22:37:20.105Z,98.75
2022-10-21T22:39:45.030Z,99.05
2022-10-21T22:42:08.636Z,100.00
2022-10-21T22:44:32.207Z,100.00
2022-10-21T22:46:55.772Z,100.00
2022-10-21T22:49:19.331Z,100.00
2022-10-21T22:51:43.134Z,100.00
2022-10-21T22:54:15.040Z,99.19
2022-10-21T22:56:49.188Z,99.61
2022-10-21T22:59:12.721Z,100.00
2022-10-21T23:01:36.339Z,100.00
2022-10-21T23:04:02.754Z,99.28
2022-10-21T23:06:26.455Z,99.56
2022-10-21T23:08:50.093Z,99.39
2022-10-21T23:11:13.714Z,100.00
2022-10-21T23:13:47.367Z,100.00
2022-10-21T23:16:20.179Z,99.97
2022-10-21T23:18:43.791Z,100.00
2022-10-21T23:21:07.872Z,99.00
2022-10-21T23:23:31.935Z,98.32
2022-10-21T23:25:55.527Z,100.00
2022-10-21T23:30:49.068Z,99.31
2022-10-21T23:33:12.571Z,98.57
2022-10-21T23:35:36.361Z,96.61
2022-10-21T23:38:00.418Z,96.86
2022-10-21T23:40:24.087Z,97.71
2022-10-21T23:42:47.630Z,96.99
2022-10-21T23:45:12.680Z,95.31
2022-10-21T23:47:38.190Z,95.07
2022-10-21T23:50:02.181Z,94.38
2022-10-21T23:52:25.840Z,93.52
2022-10-21T23:54:49.482Z,93.06
2022-10-21T23:57:13.050Z,93.46
2022-10-21T23:59:36.664Z,92.69
